Metar Aviation Weather Data ENAL

14°C Temp
11°C Dewpoint
% Humidity
Temperature
10 KM/H
6 MPH
5 KTS
100°
Due East

Wind Speed
Clear
Conditions
Pressure 995.92 (hPa) - 29.41 (in)
Visibility 6.2 (mi) - 10 (km)

Current Conditions
ENAL
Metar :ENAL 182050Z 10005KT 070V130 CAVOK 14/11 Q0996
Sun 18th August 22:50 pm

  Metar Aviation API Data Provided by https://www.checkwx.com/ PHP scripts by weather34.com ©2019